createdAt,value
2019-05-16T00:00:58.745Z,100643.57
2019-05-16T00:04:02.982Z,100639.09
2019-05-16T00:07:08.060Z,100634.20
2019-05-16T00:10:12.537Z,100631.22
2019-05-16T00:13:18.617Z,100629.09
2019-05-16T00:16:22.645Z,100627.27
2019-05-16T00:19:28.789Z,100624.92
2019-05-16T00:22:33.353Z,100620.64
2019-05-16T00:25:38.619Z,100620.76
2019-05-16T00:28:42.872Z,100612.74
2019-05-16T00:31:48.652Z,100620.76
2019-05-16T00:34:53.526Z,100608.68
2019-05-16T00:37:59.012Z,100609.24
2019-05-16T00:41:03.655Z,100607.80
2019-05-16T00:44:08.552Z,100608.16
2019-05-16T00:47:13.225Z,100608.27
2019-05-16T00:50:18.349Z,100601.23
2019-05-16T00:53:22.677Z,100596.48
2019-05-16T00:56:28.931Z,100595.30
2019-05-16T00:59:34.148Z,100591.29
2019-05-16T01:02:38.411Z,100585.13
2019-05-16T01:05:42.637Z,100586.60
2019-05-16T01:08:48.758Z,100585.72
2019-05-16T01:11:52.583Z,100579.88
2019-05-16T01:14:58.418Z,100581.71
2019-05-16T01:18:03.130Z,100575.50
2019-05-16T01:21:07.844Z,100573.17
2019-05-16T01:24:11.901Z,100570.61
2019-05-16T01:27:18.368Z,100572.95
2019-05-16T01:30:21.984Z,100571.66
2019-05-16T01:33:28.061Z,100567.59
2019-05-16T01:36:36.701Z,100567.27
2019-05-16T01:39:38.293Z,100561.86
2019-05-16T01:42:42.497Z,100556.35
2019-05-16T01:45:48.660Z,100558.12
2019-05-16T01:48:52.500Z,100550.88
2019-05-16T01:51:57.907Z,100554.15
2019-05-16T01:55:02.263Z,100548.23
2019-05-16T01:58:08.043Z,100540.61
2019-05-16T02:01:15.070Z,100542.08
2019-05-16T02:04:18.449Z,100538.02
2019-05-16T02:07:22.414Z,100533.65
2019-05-16T02:10:28.336Z,100533.65
2019-05-16T02:13:32.348Z,100530.47
2019-05-16T02:16:38.439Z,100533.13
2019-05-16T02:19:43.011Z,100529.95
2019-05-16T02:22:48.230Z,100523.38
2019-05-16T02:25:52.292Z,100516.72
2019-05-16T02:28:56.291Z,100513.19
2019-05-16T02:32:02.057Z,100514.55
2019-05-16T02:35:06.481Z,100511.67
2019-05-16T02:38:11.389Z,100504.34
2019-05-16T02:41:16.491Z,100502.30
2019-05-16T02:44:24.403Z,100499.18
2019-05-16T02:47:26.061Z,100496.42
2019-05-16T02:50:31.801Z,100497.30
2019-05-16T02:53:36.216Z,100488.56
2019-05-16T02:56:41.738Z,100493.81
2019-05-16T02:59:46.705Z,100490.55
2019-05-16T03:02:51.377Z,100487.47
2019-05-16T03:05:57.233Z,100484.39
2019-05-16T03:09:05.280Z,100485.80
2019-05-16T03:12:10.814Z,100484.56
2019-05-16T03:15:15.340Z,100481.06
2019-05-16T03:18:22.614Z,100468.17
2019-05-16T03:21:30.885Z,100465.52
2019-05-16T03:24:34.877Z,100468.01
2019-05-16T03:27:41.423Z,100476.38
2019-05-16T03:30:45.498Z,100462.69
2019-05-16T03:33:58.930Z,100458.33
2019-05-16T03:36:55.901Z,100465.23
2019-05-16T03:40:00.777Z,100456.81
2019-05-16T03:43:04.964Z,100457.22
2019-05-16T03:46:11.739Z,100454.57
2019-05-16T03:49:14.977Z,100450.52
2019-05-16T03:52:20.704Z,100450.52
2019-05-16T03:55:24.927Z,100454.05
2019-05-16T03:58:31.039Z,100454.94
2019-05-16T04:01:34.851Z,100448.69
2019-05-16T04:04:41.477Z,100448.12
2019-05-16T04:07:44.683Z,100443.17
2019-05-16T04:10:51.696Z,100441.47
2019-05-16T04:13:54.966Z,100443.17
2019-05-16T04:17:01.359Z,100439.53
2019-05-16T04:20:06.811Z,100440.33
2019-05-16T04:23:11.353Z,100438.75
2019-05-16T04:26:15.953Z,100439.97
2019-05-16T04:29:20.742Z,100438.56
2019-05-16T04:32:24.963Z,100443.80
2019-05-16T04:35:31.627Z,100438.72
2019-05-16T04:38:41.271Z,100441.31
2019-05-16T04:41:41.046Z,100433.70
2019-05-16T04:44:45.083Z,100428.44
2019-05-16T04:47:51.117Z,100429.63
2019-05-16T04:50:54.950Z,100432.03
2019-05-16T04:54:02.008Z,100430.90
2019-05-16T04:57:04.982Z,100427.98
2019-05-16T05:00:11.314Z,100425.06
2019-05-16T05:03:15.596Z,100428.19
2019-05-16T05:06:20.817Z,100426.20
2019-05-16T05:09:25.460Z,100431.01
2019-05-16T05:12:31.488Z,100434.22
2019-05-16T05:15:36.413Z,100438.95
2019-05-16T05:18:41.010Z,100434.41
2019-05-16T05:21:45.628Z,100427.69
2019-05-16T05:24:50.756Z,100428.52
2019-05-16T05:27:54.779Z,100424.91
2019-05-16T05:31:00.069Z,100424.49
2019-05-16T05:34:04.060Z,100426.89
2019-05-16T05:37:12.246Z,100428.93
2019-05-16T05:40:16.331Z,100423.91
2019-05-16T05:43:21.515Z,100422.58
2019-05-16T05:46:26.297Z,100421.30
2019-05-16T05:49:30.520Z,100412.64
2019-05-16T05:52:34.649Z,100412.17
2019-05-16T05:55:40.506Z,100405.17
2019-05-16T05:58:44.468Z,100402.81
2019-05-16T06:01:51.572Z,100397.88
2019-05-16T06:04:54.558Z,100402.52
2019-05-16T06:08:00.302Z,100400.66
2019-05-16T06:11:05.329Z,100393.23
2019-05-16T06:14:09.812Z,100387.84
2019-05-16T06:17:14.271Z,100394.30
2019-05-16T06:20:20.343Z,100391.37
2019-05-16T06:23:25.066Z,100390.47
2019-05-16T06:26:30.308Z,100387.80
2019-05-16T06:29:34.671Z,100373.20
2019-05-16T06:32:39.545Z,100371.88
2019-05-16T06:35:43.968Z,100362.17
2019-05-16T06:38:49.760Z,100361.59
2019-05-16T06:41:54.196Z,100353.13
2019-05-16T06:45:00.892Z,100339.45
2019-05-16T06:48:05.401Z,100340.70
2019-05-16T06:51:10.720Z,100330.48
2019-05-16T06:54:15.090Z,100325.41
2019-05-16T06:57:20.629Z,100329.55
2019-05-16T07:00:24.739Z,100328.91
2019-05-16T07:03:30.671Z,100332.95
2019-05-16T07:06:51.641Z,100327.86
2019-05-16T07:09:56.100Z,100328.78
2019-05-16T07:12:50.171Z,100313.41
2019-05-16T07:15:53.689Z,100317.95
2019-05-16T07:18:58.059Z,100316.36
2019-05-16T07:22:02.007Z,100316.41
2019-05-16T07:25:06.821Z,100313.39
2019-05-16T07:28:10.744Z,100311.22
2019-05-16T07:31:18.749Z,100303.09
2019-05-16T07:34:20.972Z,100297.23
2019-05-16T07:37:25.160Z,100296.56
2019-05-16T07:40:30.826Z,100294.83
2019-05-16T07:43:34.772Z,100296.47
2019-05-16T07:46:40.904Z,100296.25
2019-05-16T07:49:45.134Z,100295.83
2019-05-16T07:52:51.063Z,100294.53
2019-05-16T07:55:56.106Z,100287.89
2019-05-16T07:59:00.921Z,100296.48
2019-05-16T08:02:05.034Z,100289.44
2019-05-16T08:05:10.228Z,100281.83
2019-05-16T08:08:14.892Z,100279.03
2019-05-16T08:11:23.189Z,100271.53
2019-05-16T08:14:25.037Z,100272.52
2019-05-16T08:17:31.435Z,100264.54
2019-05-16T08:20:35.564Z,100258.36
2019-05-16T08:23:41.181Z,100257.64
2019-05-16T08:26:45.744Z,100250.75
2019-05-16T08:29:51.377Z,100251.60
2019-05-16T08:32:55.967Z,100250.56
2019-05-16T08:36:04.730Z,100249.58
2019-05-16T08:39:10.867Z,100246.54
2019-05-16T08:42:13.636Z,100242.91
2019-05-16T08:45:21.212Z,100237.80
2019-05-16T08:48:24.647Z,100231.99
2019-05-16T08:51:32.821Z,100230.25
2019-05-16T08:54:34.807Z,100224.70
2019-05-16T08:57:41.003Z,100222.22
2019-05-16T09:00:44.875Z,100215.78
2019-05-16T09:03:51.684Z,100212.40
2019-05-16T09:06:54.773Z,100209.61
2019-05-16T09:10:00.208Z,100207.38
2019-05-16T09:13:07.138Z,100200.36
2019-05-16T09:16:10.839Z,100193.28
2019-05-16T09:19:16.942Z,100189.36
2019-05-16T09:22:20.732Z,100184.10
2019-05-16T09:25:27.453Z,100174.70
2019-05-16T09:28:30.960Z,100163.20
2019-05-16T09:31:38.262Z,100162.33
2019-05-16T09:34:40.980Z,100153.95
2019-05-16T09:37:47.315Z,100152.80
2019-05-16T09:40:51.696Z,100141.61
2019-05-16T09:43:58.629Z,100131.52
2019-05-16T09:47:01.347Z,100128.78
2019-05-16T09:50:07.175Z,100140.49
2019-05-16T09:53:11.438Z,100142.42
2019-05-16T09:56:16.808Z,100131.79
2019-05-16T09:59:21.207Z,100130.73
2019-05-16T10:02:27.454Z,100120.75
2019-05-16T10:05:31.185Z,100119.02
2019-05-16T10:08:37.453Z,100114.64
2019-05-16T10:11:42.761Z,100108.31
2019-05-16T10:14:47.096Z,100110.59
2019-05-16T10:17:51.369Z,100109.68
2019-05-16T10:20:58.994Z,100103.36
2019-05-16T10:24:01.688Z,100109.14
2019-05-16T10:27:06.675Z,100098.53
2019-05-16T10:30:12.341Z,100102.91
2019-05-16T10:33:18.846Z,100095.05
2019-05-16T10:36:22.321Z,100097.80
2019-05-16T10:39:26.906Z,100098.27
2019-05-16T10:42:31.444Z,100083.27
2019-05-16T10:45:36.872Z,100085.02
2019-05-16T10:48:40.961Z,100070.77
2019-05-16T10:51:46.994Z,100068.47
2019-05-16T10:54:57.550Z,100064.39
2019-05-16T10:57:56.890Z,100065.25
2019-05-16T11:01:22.269Z,100062.77
2019-05-16T11:04:07.945Z,100059.80
2019-05-16T11:07:12.097Z,100050.80
2019-05-16T11:10:16.887Z,100061.55
2019-05-16T11:13:20.886Z,100049.18
2019-05-16T11:16:27.491Z,100049.45
2019-05-16T11:19:31.043Z,100046.44
2019-05-16T11:22:36.990Z,100041.21
2019-05-16T11:25:41.268Z,100031.84
2019-05-16T11:28:48.548Z,100025.81
2019-05-16T11:31:51.598Z,100027.41
2019-05-16T11:34:56.284Z,100031.64
2019-05-16T11:38:00.774Z,100024.52
2019-05-16T11:41:07.304Z,100010.32
2019-05-16T11:44:10.726Z,100010.32
2019-05-16T11:47:16.576Z,100010.61
2019-05-16T11:50:21.141Z,100010.61
2019-05-16T11:53:28.119Z,100001.73
2019-05-16T11:56:30.692Z,100001.73
2019-05-16T11:59:37.166Z,99997.26
2019-05-16T12:02:42.805Z,99995.55
2019-05-16T12:05:48.313Z,99994.76
2019-05-16T12:08:52.781Z,99993.31
2019-05-16T12:12:04.236Z,99989.62
2019-05-16T12:15:02.899Z,99998.05
2019-05-16T12:18:08.489Z,99992.64
2019-05-16T12:21:12.980Z,99989.69
2019-05-16T12:24:31.647Z,99971.23
2019-05-16T12:27:23.114Z,99971.23
2019-05-16T12:30:27.376Z,99973.45
2019-05-16T12:33:31.668Z,99956.94
2019-05-16T12:36:37.852Z,99960.11
2019-05-16T12:39:41.767Z,99960.11
2019-05-16T12:42:47.176Z,99957.16
2019-05-16T12:45:51.300Z,99953.33
2019-05-16T12:48:57.492Z,99944.52
2019-05-16T12:52:00.866Z,99945.50
2019-05-16T12:55:05.177Z,99937.75
2019-05-16T12:58:13.288Z,99935.02
2019-05-16T13:01:17.627Z,99930.23
2019-05-16T13:04:20.743Z,99928.19
2019-05-16T13:07:26.929Z,99923.69
2019-05-16T13:10:30.724Z,99924.87
2019-05-16T13:13:37.264Z,99926.91
2019-05-16T13:16:40.785Z,99926.11
2019-05-16T13:19:48.122Z,99928.40
2019-05-16T13:22:50.871Z,99923.97
2019-05-16T13:25:57.487Z,99920.50
2019-05-16T13:29:00.987Z,99918.72
2019-05-16T13:32:07.555Z,99925.87
2019-05-16T13:35:10.900Z,99925.87
2019-05-16T13:38:17.381Z,99914.41
2019-05-16T13:41:20.748Z,99912.27
2019-05-16T13:44:27.294Z,99901.08
2019-05-16T13:47:30.859Z,99901.08
2019-05-16T13:50:37.352Z,99905.44
2019-05-16T13:53:41.258Z,99902.94
2019-05-16T13:56:48.387Z,99904.05
2019-05-16T13:59:52.309Z,99904.05
2019-05-16T14:02:56.795Z,99910.25
2019-05-16T14:06:01.416Z,99910.48
2019-05-16T14:12:11.604Z,99902.27
2019-05-16T14:15:18.127Z,99903.00
2019-05-16T14:18:22.707Z,99905.96
2019-05-16T14:21:27.340Z,99910.84
2019-05-16T14:24:31.655Z,99911.14
2019-05-16T14:27:38.324Z,99910.03
2019-05-16T14:30:41.720Z,99911.59
2019-05-16T14:33:47.438Z,99908.28
2019-05-16T14:36:52.119Z,99906.69
2019-05-16T14:40:00.378Z,99909.22
2019-05-16T14:43:01.576Z,99907.94
2019-05-16T14:46:09.283Z,99912.04
2019-05-16T14:49:11.291Z,99913.17
2019-05-16T14:52:15.251Z,99911.36
2019-05-16T14:55:19.339Z,99910.48
2019-05-16T14:58:23.280Z,99906.79
2019-05-16T15:01:30.163Z,99908.84
2019-05-16T15:04:34.318Z,99912.75
2019-05-16T15:07:38.318Z,99908.54
2019-05-16T15:10:43.006Z,99910.48
2019-05-16T15:13:47.244Z,99905.16
2019-05-16T15:16:52.025Z,99906.25
2019-05-16T15:19:57.151Z,99904.95
2019-05-16T15:23:01.101Z,99906.56
2019-05-16T15:26:09.000Z,99906.25
2019-05-16T15:29:10.774Z,99904.35
2019-05-16T15:32:17.634Z,99894.16
2019-05-16T15:35:21.624Z,99890.05
2019-05-16T15:38:27.201Z,99892.53
2019-05-16T15:41:31.342Z,99899.77
2019-05-16T15:44:36.853Z,99894.98
2019-05-16T15:47:41.764Z,99895.22
2019-05-16T15:50:45.996Z,99890.99
2019-05-16T15:53:50.447Z,99889.00
2019-05-16T15:56:54.444Z,99896.69
2019-05-16T15:59:58.963Z,99889.80
2019-05-16T16:03:02.986Z,99891.48
2019-05-16T16:06:07.515Z,99891.75
2019-05-16T16:09:11.859Z,99892.34
2019-05-16T16:12:17.014Z,99894.03
2019-05-16T16:15:21.406Z,99894.89
2019-05-16T16:18:27.065Z,99887.25
2019-05-16T16:21:31.365Z,99889.30
2019-05-16T16:24:35.388Z,99888.91
2019-05-16T16:27:39.681Z,99881.20
2019-05-16T16:30:47.441Z,99886.78
2019-05-16T16:33:50.426Z,99891.75
2019-05-16T16:36:56.802Z,99894.70
2019-05-16T16:40:00.593Z,99899.88
2019-05-16T16:43:07.756Z,99891.97
2019-05-16T16:46:13.659Z,99899.70
2019-05-16T16:49:17.470Z,99897.00
2019-05-16T16:52:21.703Z,99904.97
2019-05-16T16:55:27.519Z,99907.16
2019-05-16T16:58:31.969Z,99916.80
2019-05-16T17:01:37.348Z,99919.56
2019-05-16T17:04:41.803Z,99915.31
2019-05-16T17:07:48.727Z,99921.05
2019-05-16T17:10:52.668Z,99924.20
2019-05-16T17:13:56.939Z,99922.31
2019-05-16T17:17:01.273Z,99925.58
2019-05-16T17:20:07.667Z,99928.08
2019-05-16T17:23:12.482Z,99925.52
2019-05-16T17:26:16.410Z,99929.66
2019-05-16T17:29:20.614Z,99926.32
2019-05-16T17:32:27.267Z,99925.59
2019-05-16T17:35:31.126Z,99931.03
2019-05-16T17:38:37.156Z,99936.58
2019-05-16T17:41:41.084Z,99934.28
2019-05-16T17:44:47.277Z,99929.75
2019-05-16T17:47:51.353Z,99933.59
2019-05-16T17:50:57.026Z,99938.75
2019-05-16T17:54:01.644Z,99940.30
2019-05-16T17:57:07.446Z,99943.33
2019-05-16T18:00:16.948Z,99939.08
2019-05-16T18:03:18.391Z,99939.48
2019-05-16T18:06:22.316Z,99938.84
2019-05-16T18:09:27.888Z,99938.30
2019-05-16T18:12:32.270Z,99942.36
2019-05-16T18:15:36.946Z,99943.70
2019-05-16T18:18:41.158Z,99947.98
2019-05-16T18:21:46.433Z,99939.79
2019-05-16T18:24:51.049Z,99942.97
2019-05-16T18:27:55.275Z,99941.62
2019-05-16T18:30:59.367Z,99942.25
2019-05-16T18:34:03.648Z,99932.11
2019-05-16T18:37:07.896Z,99932.02
2019-05-16T18:40:13.435Z,99932.64
2019-05-16T18:43:21.469Z,99922.69
2019-05-16T18:46:26.935Z,99925.70
2019-05-16T18:49:31.327Z,99930.58
2019-05-16T18:52:37.571Z,99922.59
2019-05-16T18:55:42.943Z,99920.16
2019-05-16T18:58:48.126Z,99918.33
2019-05-16T19:01:53.064Z,99918.71
2019-05-16T19:04:57.874Z,99913.94
2019-05-16T19:08:02.208Z,99913.75
2019-05-16T19:11:07.428Z,99909.19
2019-05-16T19:14:12.215Z,99914.59
2019-05-16T19:17:22.028Z,99910.14
2019-05-16T19:20:22.741Z,99906.79
2019-05-16T19:23:27.065Z,99907.94
2019-05-16T19:26:31.244Z,99901.31
2019-05-16T19:29:36.846Z,99909.50
2019-05-16T19:32:41.187Z,99905.88
2019-05-16T19:35:46.874Z,99904.38
2019-05-16T19:38:51.580Z,99897.05
2019-05-16T19:41:57.236Z,99897.22
2019-05-16T19:45:01.804Z,99898.46
2019-05-16T19:48:07.500Z,99895.69
2019-05-16T19:51:11.786Z,99886.42
2019-05-16T19:54:16.471Z,99897.11
2019-05-16T19:57:20.279Z,99892.82
2019-05-16T20:00:26.437Z,99897.62
2019-05-16T20:03:30.333Z,99899.86
2019-05-16T20:06:36.938Z,99898.75
2019-05-16T20:09:41.335Z,99902.16
2019-05-16T20:12:46.271Z,99899.05
2019-05-16T20:15:50.937Z,99895.94
2019-05-16T20:18:56.189Z,99896.17
2019-05-16T20:22:00.176Z,99887.86
2019-05-16T20:25:04.340Z,99885.50
2019-05-16T20:28:09.132Z,99885.49
2019-05-16T20:31:13.436Z,99889.15
2019-05-16T20:34:17.864Z,99883.81
2019-05-16T20:37:23.047Z,99881.84
2019-05-16T20:40:26.963Z,99878.53
2019-05-16T20:43:30.940Z,99872.98
2019-05-16T20:46:35.212Z,99878.48
2019-05-16T20:49:39.141Z,99873.20
2019-05-16T20:52:43.395Z,99868.06
2019-05-16T20:55:49.666Z,99865.64
2019-05-16T20:58:54.321Z,99861.02
2019-05-16T21:01:58.572Z,99865.52
2019-05-16T21:05:02.829Z,99863.37
2019-05-16T21:08:06.908Z,99861.96
2019-05-16T21:11:10.931Z,99859.63
2019-05-16T21:14:16.422Z,99864.34
2019-05-16T21:17:20.444Z,99856.91
2019-05-16T21:20:27.021Z,99863.66
2019-05-16T21:23:30.554Z,99851.26
2019-05-16T21:26:36.736Z,99852.30
2019-05-16T21:29:40.887Z,99850.45
2019-05-16T21:32:47.106Z,99848.69
2019-05-16T21:35:50.866Z,99847.34
2019-05-16T21:38:55.267Z,99845.45
2019-05-16T21:41:59.540Z,99841.93
2019-05-16T21:45:03.679Z,99834.30
2019-05-16T21:48:07.643Z,99835.75
2019-05-16T21:51:12.176Z,99835.64
2019-05-16T21:54:17.025Z,99829.29
2019-05-16T21:57:21.521Z,99832.11
2019-05-16T22:00:31.510Z,99831.19
2019-05-16T22:03:36.739Z,99830.15
2019-05-16T22:06:41.308Z,99826.77
2019-05-16T22:09:46.569Z,99822.24
2019-05-16T22:12:51.496Z,99822.08
2019-05-16T22:15:56.882Z,99820.27
2019-05-16T22:19:01.092Z,99818.34
2019-05-16T22:22:07.412Z,99817.33
2019-05-16T22:25:12.607Z,99820.17
2019-05-16T22:28:17.406Z,99818.08
2019-05-16T22:31:21.436Z,99810.23
2019-05-16T22:34:26.482Z,99809.83
2019-05-16T22:37:30.458Z,99805.37
2019-05-16T22:40:37.169Z,99797.56
2019-05-16T22:43:40.319Z,99797.23
2019-05-16T22:46:46.492Z,99795.94
2019-05-16T22:49:51.200Z,99789.12
2019-05-16T22:52:56.977Z,99782.83
2019-05-16T22:56:01.837Z,99783.17
2019-05-16T22:59:07.188Z,99776.14
2019-05-16T23:02:12.561Z,99764.93
2019-05-16T23:05:16.918Z,99768.27
2019-05-16T23:08:21.660Z,99769.31
2019-05-16T23:11:27.017Z,99755.80
2019-05-16T23:14:31.511Z,99757.89
2019-05-16T23:17:37.492Z,99757.33
2019-05-16T23:20:42.012Z,99752.80
2019-05-16T23:23:46.514Z,99750.97
2019-05-16T23:26:50.591Z,99738.23
2019-05-16T23:29:56.761Z,99740.39
2019-05-16T23:33:00.541Z,99736.95
2019-05-16T23:36:07.202Z,99740.44
2019-05-16T23:39:10.572Z,99729.96
2019-05-16T23:42:14.822Z,99727.19
2019-05-16T23:45:18.802Z,99728.68
2019-05-16T23:48:23.279Z,99726.63
2019-05-16T23:51:27.716Z,99718.18
2019-05-16T23:54:32.308Z,99717.91
2019-05-16T23:57:37.344Z,99711.47
